sensor_id;sensor_type;location;lat;lon;timestamp;P1;durP1;ratioP1;P2;durP2;ratioP2
52620;SDS011;38515;53.160;6.990;2022-10-13T00:01:28;64.85;;;60.88;;
52620;SDS011;38515;53.160;6.990;2022-10-13T00:03:54;64.22;;;59.28;;
52620;SDS011;38515;53.160;6.990;2022-10-13T00:06:21;68.07;;;63.75;;
52620;SDS011;38515;53.160;6.990;2022-10-13T00:08:49;73.80;;;68.72;;
52620;SDS011;38515;53.160;6.990;2022-10-13T00:11:16;535.90;;;510.08;;
52620;SDS011;38515;53.160;6.990;2022-10-13T00:13:43;66.57;;;62.67;;
52620;SDS011;38515;53.160;6.990;2022-10-13T00:16:10;70.53;;;66.22;;
52620;SDS011;38515;53.160;6.990;2022-10-13T00:18:38;70.97;;;66.78;;
52620;SDS011;38515;53.160;6.990;2022-10-13T00:21:06;69.63;;;64.82;;
52620;SDS011;38515;53.160;6.990;2022-10-13T00:23:33;68.47;;;63.53;;
52620;SDS011;38515;53.160;6.990;2022-10-13T00:26:01;69.68;;;64.97;;
52620;SDS011;38515;53.160;6.990;2022-10-13T00:28:29;67.03;;;62.03;;
52620;SDS011;38515;53.160;6.990;2022-10-13T00:30:55;69.53;;;65.55;;
52620;SDS011;38515;53.160;6.990;2022-10-13T00:33:21;70.43;;;65.85;;
52620;SDS011;38515;53.160;6.990;2022-10-13T00:35:47;73.00;;;68.53;;
52620;SDS011;38515;53.160;6.990;2022-10-13T00:38:15;72.88;;;68.30;;
52620;SDS011;38515;53.160;6.990;2022-10-13T00:40:43;71.20;;;66.60;;
52620;SDS011;38515;53.160;6.990;2022-10-13T00:43:14;69.82;;;65.35;;
52620;SDS011;38515;53.160;6.990;2022-10-13T00:45:47;73.53;;;68.95;;
52620;SDS011;38515;53.160;6.990;2022-10-13T00:48:16;73.57;;;68.78;;
52620;SDS011;38515;53.160;6.990;2022-10-13T00:50:44;71.95;;;67.40;;
52620;SDS011;38515;53.160;6.990;2022-10-13T00:53:10;71.65;;;66.80;;
52620;SDS011;38515;53.160;6.990;2022-10-13T00:55:38;77.28;;;72.57;;
52620;SDS011;38515;53.160;6.990;2022-10-13T00:58:06;79.63;;;74.97;;
52620;SDS011;38515;53.160;6.990;2022-10-13T01:00:36;70.95;;;66.05;;
52620;SDS011;38515;53.160;6.990;2022-10-13T01:03:02;74.55;;;69.45;;
52620;SDS011;38515;53.160;6.990;2022-10-13T01:05:28;69.55;;;64.22;;
52620;SDS011;38515;53.160;6.990;2022-10-13T01:07:55;68.07;;;63.13;;
52620;SDS011;38515;53.160;6.990;2022-10-13T01:10:32;68.25;;;63.83;;
52620;SDS011;38515;53.160;6.990;2022-10-13T01:13:11;110.90;;;105.10;;
52620;SDS011;38515;53.160;6.990;2022-10-13T01:15:49;67.90;;;62.92;;
52620;SDS011;38515;53.160;6.990;2022-10-13T01:21:03;72.07;;;67.05;;
52620;SDS011;38515;53.160;6.990;2022-10-13T01:23:45;65.20;;;60.80;;
52620;SDS011;38515;53.160;6.990;2022-10-13T01:28:54;66.80;;;62.00;;
52620;SDS011;38515;53.160;6.990;2022-10-13T01:31:45;70.55;;;65.50;;
52620;SDS011;38515;53.160;6.990;2022-10-13T01:39:47;68.70;;;64.38;;
52620;SDS011;38515;53.160;6.990;2022-10-13T01:42:20;75.70;;;70.38;;
52620;SDS011;38515;53.160;6.990;2022-10-13T01:44:52;69.88;;;64.43;;
52620;SDS011;38515;53.160;6.990;2022-10-13T01:47:24;70.80;;;65.68;;
52620;SDS011;38515;53.160;6.990;2022-10-13T01:49:52;61.22;;;56.90;;
52620;SDS011;38515;53.160;6.990;2022-10-13T01:52:20;69.85;;;64.93;;
52620;SDS011;38515;53.160;6.990;2022-10-13T01:54:50;66.70;;;62.25;;
52620;SDS011;38515;53.160;6.990;2022-10-13T01:57:28;69.65;;;64.88;;
52620;SDS011;38515;53.160;6.990;2022-10-13T01:59:57;67.10;;;62.20;;
52620;SDS011;38515;53.160;6.990;2022-10-13T02:02:27;270.55;;;258.38;;
52620;SDS011;38515;53.160;6.990;2022-10-13T02:05:11;73.53;;;68.22;;
52620;SDS011;38515;53.160;6.990;2022-10-13T02:07:48;70.90;;;65.72;;
52620;SDS011;38515;53.160;6.990;2022-10-13T02:10:21;66.88;;;62.03;;
52620;SDS011;38515;53.160;6.990;2022-10-13T02:12:59;67.90;;;62.83;;
52620;SDS011;38515;53.160;6.990;2022-10-13T02:15:30;69.13;;;64.05;;
52620;SDS011;38515;53.160;6.990;2022-10-13T02:18:00;68.90;;;64.20;;
52620;SDS011;38515;53.160;6.990;2022-10-13T02:20:28;67.68;;;62.30;;
52620;SDS011;38515;53.160;6.990;2022-10-13T02:22:57;67.93;;;63.08;;
52620;SDS011;38515;53.160;6.990;2022-10-13T02:25:28;67.07;;;62.38;;
52620;SDS011;38515;53.160;6.990;2022-10-13T02:27:56;66.88;;;62.33;;
52620;SDS011;38515;53.160;6.990;2022-10-13T02:30:25;65.07;;;61.08;;
52620;SDS011;38515;53.160;6.990;2022-10-13T02:32:53;71.68;;;66.38;;
52620;SDS011;38515;53.160;6.990;2022-10-13T02:35:21;69.22;;;64.65;;
52620;SDS011;38515;53.160;6.990;2022-10-13T02:37:47;66.05;;;61.25;;
52620;SDS011;38515;53.160;6.990;2022-10-13T02:40:13;68.45;;;63.50;;
52620;SDS011;38515;53.160;6.990;2022-10-13T02:42:39;84.50;;;79.03;;
52620;SDS011;38515;53.160;6.990;2022-10-13T02:45:05;77.05;;;71.80;;
52620;SDS011;38515;53.160;6.990;2022-10-13T02:47:31;83.22;;;77.68;;
52620;SDS011;38515;53.160;6.990;2022-10-13T02:49:57;73.45;;;68.32;;
52620;SDS011;38515;53.160;6.990;2022-10-13T02:52:23;77.78;;;72.75;;
52620;SDS011;38515;53.160;6.990;2022-10-13T02:54:49;68.88;;;63.80;;
52620;SDS011;38515;53.160;6.990;2022-10-13T02:57:15;75.72;;;70.38;;
52620;SDS011;38515;53.160;6.990;2022-10-13T02:59:42;69.47;;;64.55;;
52620;SDS011;38515;53.160;6.990;2022-10-13T03:02:08;68.20;;;63.60;;
52620;SDS011;38515;53.160;6.990;2022-10-13T03:04:34;67.10;;;62.20;;
52620;SDS011;38515;53.160;6.990;2022-10-13T03:07:00;75.32;;;69.68;;
52620;SDS011;38515;53.160;6.990;2022-10-13T03:09:26;78.03;;;71.97;;
52620;SDS011;38515;53.160;6.990;2022-10-13T03:11:51;70.05;;;65.10;;
52620;SDS011;38515;53.160;6.990;2022-10-13T03:14:17;74.78;;;68.03;;
52620;SDS011;38515;53.160;6.990;2022-10-13T03:16:43;381.95;;;363.30;;
52620;SDS011;38515;53.160;6.990;2022-10-13T03:19:09;75.15;;;70.20;;
52620;SDS011;38515;53.160;6.990;2022-10-13T03:21:36;69.43;;;64.72;;
52620;SDS011;38515;53.160;6.990;2022-10-13T03:24:03;72.15;;;67.50;;
52620;SDS011;38515;53.160;6.990;2022-10-13T03:26:30;66.05;;;61.50;;
52620;SDS011;38515;53.160;6.990;2022-10-13T03:28:56;69.85;;;65.30;;
52620;SDS011;38515;53.160;6.990;2022-10-13T03:31:22;72.88;;;67.45;;
52620;SDS011;38515;53.160;6.990;2022-10-13T03:33:48;67.68;;;63.03;;
52620;SDS011;38515;53.160;6.990;2022-10-13T03:36:14;69.47;;;65.05;;
52620;SDS011;38515;53.160;6.990;2022-10-13T03:38:40;67.10;;;62.25;;
52620;SDS011;38515;53.160;6.990;2022-10-13T03:41:11;67.97;;;63.28;;
52620;SDS011;38515;53.160;6.990;2022-10-13T03:43:38;71.00;;;66.20;;
52620;SDS011;38515;53.160;6.990;2022-10-13T03:46:06;74.68;;;69.43;;
52620;SDS011;38515;53.160;6.990;2022-10-13T03:48:33;458.05;;;434.15;;
52620;SDS011;38515;53.160;6.990;2022-10-13T03:51:07;69.78;;;65.13;;
52620;SDS011;38515;53.160;6.990;2022-10-13T03:53:35;70.45;;;65.45;;
52620;SDS011;38515;53.160;6.990;2022-10-13T03:56:01;69.63;;;64.35;;
52620;SDS011;38515;53.160;6.990;2022-10-13T03:58:27;72.47;;;67.10;;
52620;SDS011;38515;53.160;6.990;2022-10-13T04:00:54;76.72;;;71.57;;
52620;SDS011;38515;53.160;6.990;2022-10-13T04:03:20;67.40;;;62.17;;
52620;SDS011;38515;53.160;6.990;2022-10-13T04:05:46;73.15;;;67.45;;
52620;SDS011;38515;53.160;6.990;2022-10-13T04:08:12;75.55;;;70.20;;
52620;SDS011;38515;53.160;6.990;2022-10-13T04:10:38;73.75;;;68.88;;
52620;SDS011;38515;53.160;6.990;2022-10-13T04:13:04;76.40;;;71.53;;
52620;SDS011;38515;53.160;6.990;2022-10-13T04:15:34;82.60;;;77.60;;
52620;SDS011;38515;53.160;6.990;2022-10-13T04:18:01;108.03;;;101.50;;
52620;SDS011;38515;53.160;6.990;2022-10-13T04:20:27;123.22;;;116.20;;
52620;SDS011;38515;53.160;6.990;2022-10-13T04:22:53;129.07;;;121.57;;
52620;SDS011;38515;53.160;6.990;2022-10-13T04:25:19;137.02;;;128.93;;
52620;SDS011;38515;53.160;6.990;2022-10-13T04:27:44;109.80;;;103.60;;
52620;SDS011;38515;53.160;6.990;2022-10-13T04:30:12;124.88;;;117.28;;
52620;SDS011;38515;53.160;6.990;2022-10-13T04:32:38;127.10;;;119.13;;
52620;SDS011;38515;53.160;6.990;2022-10-13T04:35:04;176.70;;;167.65;;
52620;SDS011;38515;53.160;6.990;2022-10-13T04:37:30;213.57;;;201.85;;
52620;SDS011;38515;53.160;6.990;2022-10-13T04:39:56;216.25;;;205.27;;
52620;SDS011;38515;53.160;6.990;2022-10-13T04:42:22;206.38;;;195.52;;
52620;SDS011;38515;53.160;6.990;2022-10-13T04:44:48;222.48;;;210.27;;
52620;SDS011;38515;53.160;6.990;2022-10-13T04:47:13;230.20;;;218.30;;
52620;SDS011;38515;53.160;6.990;2022-10-13T04:49:39;234.00;;;221.63;;
52620;SDS011;38515;53.160;6.990;2022-10-13T04:52:05;230.77;;;218.68;;
52620;SDS011;38515;53.160;6.990;2022-10-13T04:54:31;235.80;;;223.60;;
52620;SDS011;38515;53.160;6.990;2022-10-13T04:56:57;236.90;;;224.88;;
52620;SDS011;38515;53.160;6.990;2022-10-13T04:59:23;242.40;;;229.68;;
52620;SDS011;38515;53.160;6.990;2022-10-13T05:01:49;239.63;;;227.13;;
52620;SDS011;38515;53.160;6.990;2022-10-13T05:04:15;244.25;;;230.82;;
52620;SDS011;38515;53.160;6.990;2022-10-13T05:06:41;235.73;;;223.80;;
52620;SDS011;38515;53.160;6.990;2022-10-13T05:09:08;242.82;;;230.02;;
52620;SDS011;38515;53.160;6.990;2022-10-13T05:11:40;241.65;;;228.98;;
52620;SDS011;38515;53.160;6.990;2022-10-13T05:14:07;231.55;;;218.55;;
52620;SDS011;38515;53.160;6.990;2022-10-13T05:16:32;991.08;;;925.03;;
52620;SDS011;38515;53.160;6.990;2022-10-13T05:18:58;277.50;;;262.92;;
52620;SDS011;38515;53.160;6.990;2022-10-13T05:21:25;230.15;;;217.38;;
52620;SDS011;38515;53.160;6.990;2022-10-13T05:23:53;207.95;;;196.57;;
52620;SDS011;38515;53.160;6.990;2022-10-13T05:26:21;231.52;;;219.32;;
52620;SDS011;38515;53.160;6.990;2022-10-13T05:28:52;221.13;;;209.10;;
52620;SDS011;38515;53.160;6.990;2022-10-13T05:31:18;204.48;;;192.52;;
52620;SDS011;38515;53.160;6.990;2022-10-13T05:33:46;221.63;;;209.27;;
52620;SDS011;38515;53.160;6.990;2022-10-13T05:36:14;222.20;;;209.48;;
52620;SDS011;38515;53.160;6.990;2022-10-13T05:38:41;179.57;;;167.82;;
52620;SDS011;38515;53.160;6.990;2022-10-13T05:41:14;171.60;;;160.40;;
52620;SDS011;38515;53.160;6.990;2022-10-13T05:43:41;174.77;;;163.38;;
52620;SDS011;38515;53.160;6.990;2022-10-13T05:46:07;164.60;;;153.02;;
52620;SDS011;38515;53.160;6.990;2022-10-13T05:48:33;156.40;;;144.75;;
52620;SDS011;38515;53.160;6.990;2022-10-13T05:51:01;163.68;;;151.80;;
52620;SDS011;38515;53.160;6.990;2022-10-13T05:53:31;167.73;;;153.07;;
52620;SDS011;38515;53.160;6.990;2022-10-13T05:56:03;160.60;;;147.00;;
52620;SDS011;38515;53.160;6.990;2022-10-13T05:58:35;161.65;;;148.88;;
52620;SDS011;38515;53.160;6.990;2022-10-13T06:01:04;162.88;;;149.23;;
52620;SDS011;38515;53.160;6.990;2022-10-13T06:03:32;157.18;;;145.13;;
52620;SDS011;38515;53.160;6.990;2022-10-13T06:05:59;163.75;;;150.98;;
52620;SDS011;38515;53.160;6.990;2022-10-13T06:08:25;166.70;;;154.63;;
52620;SDS011;38515;53.160;6.990;2022-10-13T06:10:51;169.73;;;155.35;;
52620;SDS011;38515;53.160;6.990;2022-10-13T06:13:17;169.77;;;155.68;;
52620;SDS011;38515;53.160;6.990;2022-10-13T06:15:43;1999.90;;;999.90;;
52620;SDS011;38515;53.160;6.990;2022-10-13T06:18:09;1999.90;;;999.90;;
52620;SDS011;38515;53.160;6.990;2022-10-13T06:20:35;1999.90;;;999.90;;
52620;SDS011;38515;53.160;6.990;2022-10-13T06:23:01;1999.90;;;999.90;;
52620;SDS011;38515;53.160;6.990;2022-10-13T06:25:27;1999.90;;;999.90;;
52620;SDS011;38515;53.160;6.990;2022-10-13T06:27:54;1999.90;;;999.90;;
52620;SDS011;38515;53.160;6.990;2022-10-13T06:30:21;1999.90;;;999.90;;
52620;SDS011;38515;53.160;6.990;2022-10-13T06:32:47;1999.90;;;999.90;;
52620;SDS011;38515;53.160;6.990;2022-10-13T06:35:12;1999.90;;;999.90;;
52620;SDS011;38515;53.160;6.990;2022-10-13T06:37:38;1999.90;;;999.90;;
52620;SDS011;38515;53.160;6.990;2022-10-13T06:40:04;1999.90;;;999.90;;
52620;SDS011;38515;53.160;6.990;2022-10-13T06:42:31;1999.90;;;999.90;;
52620;SDS011;38515;53.160;6.990;2022-10-13T06:44:58;1999.90;;;999.90;;
52620;SDS011;38515;53.160;6.990;2022-10-13T06:47:24;1999.90;;;999.90;;
52620;SDS011;38515;53.160;6.990;2022-10-13T06:49:50;1999.90;;;999.90;;
52620;SDS011;38515;53.160;6.990;2022-10-13T06:52:16;1999.90;;;999.90;;
52620;SDS011;38515;53.160;6.990;2022-10-13T06:54:42;1999.90;;;999.90;;
52620;SDS011;38515;53.160;6.990;2022-10-13T06:57:08;1999.90;;;999.90;;
52620;SDS011;38515;53.160;6.990;2022-10-13T06:59:34;1999.90;;;999.90;;
52620;SDS011;38515;53.160;6.990;2022-10-13T07:02:00;1999.90;;;999.90;;
52620;SDS011;38515;53.160;6.990;2022-10-13T07:04:26;1999.90;;;999.90;;
52620;SDS011;38515;53.160;6.990;2022-10-13T07:06:52;1999.90;;;999.90;;
52620;SDS011;38515;53.160;6.990;2022-10-13T07:09:18;1999.90;;;999.90;;
52620;SDS011;38515;53.160;6.990;2022-10-13T07:11:45;1999.90;;;999.90;;
52620;SDS011;38515;53.160;6.990;2022-10-13T07:14:12;1999.90;;;999.90;;
52620;SDS011;38515;53.160;6.990;2022-10-13T07:16:38;1999.90;;;999.90;;
52620;SDS011;38515;53.160;6.990;2022-10-13T07:19:04;1999.90;;;999.90;;
52620;SDS011;38515;53.160;6.990;2022-10-13T07:21:30;1999.90;;;999.90;;
52620;SDS011;38515;53.160;6.990;2022-10-13T07:23:56;1999.90;;;999.90;;
52620;SDS011;38515;53.160;6.990;2022-10-13T07:26:22;1999.90;;;999.90;;
52620;SDS011;38515;53.160;6.990;2022-10-13T07:28:48;1999.90;;;999.90;;
52620;SDS011;38515;53.160;6.990;2022-10-13T07:31:16;1999.90;;;999.90;;
52620;SDS011;38515;53.160;6.990;2022-10-13T07:33:45;1999.90;;;999.90;;
52620;SDS011;38515;53.160;6.990;2022-10-13T07:36:12;1999.90;;;999.90;;
52620;SDS011;38515;53.160;6.990;2022-10-13T07:38:39;1999.90;;;999.90;;
52620;SDS011;38515;53.160;6.990;2022-10-13T07:41:06;1999.90;;;999.90;;
52620;SDS011;38515;53.160;6.990;2022-10-13T07:43:33;1999.90;;;999.90;;
52620;SDS011;38515;53.160;6.990;2022-10-13T07:45:59;1999.90;;;999.90;;
52620;SDS011;38515;53.160;6.990;2022-10-13T07:48:29;1999.90;;;999.90;;
52620;SDS011;38515;53.160;6.990;2022-10-13T07:50:55;1999.90;;;999.90;;
52620;SDS011;38515;53.160;6.990;2022-10-13T07:53:21;1999.90;;;999.90;;
52620;SDS011;38515;53.160;6.990;2022-10-13T07:55:47;1999.90;;;999.90;;
52620;SDS011;38515;53.160;6.990;2022-10-13T07:58:13;1999.90;;;999.90;;
52620;SDS011;38515;53.160;6.990;2022-10-13T08:00:39;1999.90;;;999.90;;
52620;SDS011;38515;53.160;6.990;2022-10-13T08:03:06;1999.90;;;999.90;;
52620;SDS011;38515;53.160;6.990;2022-10-13T08:05:32;1999.90;;;999.90;;
52620;SDS011;38515;53.160;6.990;2022-10-13T08:07:57;1999.90;;;999.90;;
52620;SDS011;38515;53.160;6.990;2022-10-13T08:10:23;1999.90;;;999.90;;
52620;SDS011;38515;53.160;6.990;2022-10-13T08:12:49;1999.90;;;999.90;;
52620;SDS011;38515;53.160;6.990;2022-10-13T08:15:15;1999.90;;;999.90;;
52620;SDS011;38515;53.160;6.990;2022-10-13T08:17:41;1999.90;;;999.90;;
52620;SDS011;38515;53.160;6.990;2022-10-13T08:20:07;1999.90;;;999.90;;
52620;SDS011;38515;53.160;6.990;2022-10-13T08:22:33;1999.90;;;999.90;;
52620;SDS011;38515;53.160;6.990;2022-10-13T08:24:59;1999.90;;;999.90;;
52620;SDS011;38515;53.160;6.990;2022-10-13T08:27:26;1999.90;;;999.90;;
52620;SDS011;38515;53.160;6.990;2022-10-13T08:29:52;1999.90;;;999.90;;
52620;SDS011;38515;53.160;6.990;2022-10-13T08:32:19;1999.90;;;999.90;;
52620;SDS011;38515;53.160;6.990;2022-10-13T08:34:46;1999.90;;;999.90;;
52620;SDS011;38515;53.160;6.990;2022-10-13T08:37:13;1999.90;;;999.90;;
52620;SDS011;38515;53.160;6.990;2022-10-13T08:39:40;1999.90;;;999.90;;
52620;SDS011;38515;53.160;6.990;2022-10-13T08:42:18;1999.90;;;999.90;;
52620;SDS011;38515;53.160;6.990;2022-10-13T08:44:48;1999.90;;;999.90;;
52620;SDS011;38515;53.160;6.990;2022-10-13T08:47:36;1999.90;;;999.90;;
52620;SDS011;38515;53.160;6.990;2022-10-13T08:50:11;1999.90;;;999.90;;
52620;SDS011;38515;53.160;6.990;2022-10-13T08:52:47;1999.90;;;999.90;;
52620;SDS011;38515;53.160;6.990;2022-10-13T08:55:22;1999.90;;;999.90;;
52620;SDS011;38515;53.160;6.990;2022-10-13T08:57:54;1999.90;;;999.90;;
52620;SDS011;38515;53.160;6.990;2022-10-13T09:00:20;1999.90;;;999.90;;
52620;SDS011;38515;53.160;6.990;2022-10-13T09:02:46;1999.90;;;999.90;;
52620;SDS011;38515;53.160;6.990;2022-10-13T09:05:21;1999.90;;;999.90;;
52620;SDS011;38515;53.160;6.990;2022-10-13T09:07:56;1999.90;;;999.90;;
52620;SDS011;38515;53.160;6.990;2022-10-13T09:10:23;1999.90;;;999.90;;
52620;SDS011;38515;53.160;6.990;2022-10-13T09:12:49;1999.90;;;999.90;;
52620;SDS011;38515;53.160;6.990;2022-10-13T09:15:15;1999.90;;;999.90;;
52620;SDS011;38515;53.160;6.990;2022-10-13T09:17:42;1999.90;;;999.90;;
52620;SDS011;38515;53.160;6.990;2022-10-13T09:23:02;1999.90;;;999.90;;
52620;SDS011;38515;53.160;6.990;2022-10-13T09:25:37;1536.07;;;783.92;;
52620;SDS011;38515;53.160;6.990;2022-10-13T09:28:12;1543.70;;;791.15;;
52620;SDS011;38515;53.160;6.990;2022-10-13T09:30:43;1540.82;;;788.30;;
52620;SDS011;38515;53.160;6.990;2022-10-13T09:35:38;1999.90;;;999.90;;
52620;SDS011;38515;53.160;6.990;2022-10-13T09:38:10;194.27;;;182.45;;
52620;SDS011;38515;53.160;6.990;2022-10-13T09:40:36;1552.53;;;799.38;;
52620;SDS011;38515;53.160;6.990;2022-10-13T09:43:14;192.77;;;181.40;;
52620;SDS011;38515;53.160;6.990;2022-10-13T09:45:52;205.45;;;189.30;;
52620;SDS011;38515;53.160;6.990;2022-10-13T09:48:20;177.55;;;165.43;;
52620;SDS011;38515;53.160;6.990;2022-10-13T09:50:51;195.88;;;183.25;;
52620;SDS011;38515;53.160;6.990;2022-10-13T09:53:24;204.10;;;189.48;;
52620;SDS011;38515;53.160;6.990;2022-10-13T09:56:09;195.32;;;182.73;;
52620;SDS011;38515;53.160;6.990;2022-10-13T09:58:49;201.93;;;186.48;;
52620;SDS011;38515;53.160;6.990;2022-10-13T10:01:21;170.27;;;160.15;;
52620;SDS011;38515;53.160;6.990;2022-10-13T10:03:50;208.00;;;191.93;;
52620;SDS011;38515;53.160;6.990;2022-10-13T10:06:17;168.38;;;157.02;;
52620;SDS011;38515;53.160;6.990;2022-10-13T10:11:24;168.73;;;157.25;;
52620;SDS011;38515;53.160;6.990;2022-10-13T10:13:54;1548.50;;;795.08;;
52620;SDS011;38515;53.160;6.990;2022-10-13T10:16:23;1544.43;;;791.53;;
52620;SDS011;38515;53.160;6.990;2022-10-13T10:19:01;1999.90;;;999.90;;
52620;SDS011;38515;53.160;6.990;2022-10-13T10:21:37;1549.60;;;796.38;;
52620;SDS011;38515;53.160;6.990;2022-10-13T10:24:16;1999.90;;;999.90;;
52620;SDS011;38515;53.160;6.990;2022-10-13T10:26:47;192.85;;;180.05;;
52620;SDS011;38515;53.160;6.990;2022-10-13T10:29:16;190.40;;;178.80;;
52620;SDS011;38515;53.160;6.990;2022-10-13T10:32:10;205.35;;;191.85;;
52620;SDS011;38515;53.160;6.990;2022-10-13T10:34:52;199.90;;;187.70;;
52620;SDS011;38515;53.160;6.990;2022-10-13T10:37:36;199.82;;;186.13;;
52620;SDS011;38515;53.160;6.990;2022-10-13T10:40:22;187.63;;;176.00;;
52620;SDS011;38515;53.160;6.990;2022-10-13T10:43:05;193.48;;;181.75;;
52620;SDS011;38515;53.160;6.990;2022-10-13T10:45:54;205.48;;;190.07;;
52620;SDS011;38515;53.160;6.990;2022-10-13T10:48:24;199.43;;;182.68;;
52620;SDS011;38515;53.160;6.990;2022-10-13T10:50:56;194.00;;;181.70;;
52620;SDS011;38515;53.160;6.990;2022-10-13T10:56:03;190.05;;;179.13;;
52620;SDS011;38515;53.160;6.990;2022-10-13T10:58:44;179.32;;;168.52;;
52620;SDS011;38515;53.160;6.990;2022-10-13T11:06:54;191.43;;;179.05;;
52620;SDS011;38515;53.160;6.990;2022-10-13T11:17:19;211.95;;;194.82;;
52620;SDS011;38515;53.160;6.990;2022-10-13T11:19:54;217.43;;;197.45;;
52620;SDS011;38515;53.160;6.990;2022-10-13T11:22:22;190.75;;;177.25;;
52620;SDS011;38515;53.160;6.990;2022-10-13T11:24:50;247.15;;;205.73;;
52620;SDS011;38515;53.160;6.990;2022-10-13T11:27:23;199.02;;;180.50;;
52620;SDS011;38515;53.160;6.990;2022-10-13T11:30:04;190.55;;;176.07;;
52620;SDS011;38515;53.160;6.990;2022-10-13T11:32:50;180.35;;;166.25;;
52620;SDS011;38515;53.160;6.990;2022-10-13T11:35:23;174.80;;;162.50;;
52620;SDS011;38515;53.160;6.990;2022-10-13T11:40:32;154.32;;;144.52;;
52620;SDS011;38515;53.160;6.990;2022-10-13T11:46:25;1999.90;;;999.90;;
52620;SDS011;38515;53.160;6.990;2022-10-13T11:51:29;1999.90;;;999.90;;
52620;SDS011;38515;53.160;6.990;2022-10-13T11:56:45;1999.90;;;999.90;;
52620;SDS011;38515;53.160;6.990;2022-10-13T11:59:20;1999.90;;;999.90;;
52620;SDS011;38515;53.160;6.990;2022-10-13T12:01:55;1999.90;;;999.90;;
52620;SDS011;38515;53.160;6.990;2022-10-13T12:04:25;1999.90;;;999.90;;
52620;SDS011;38515;53.160;6.990;2022-10-13T12:06:53;1999.90;;;999.90;;
52620;SDS011;38515;53.160;6.990;2022-10-13T12:09:23;1999.90;;;999.90;;
52620;SDS011;38515;53.160;6.990;2022-10-13T12:11:55;1999.90;;;999.90;;
52620;SDS011;38515;53.160;6.990;2022-10-13T12:14:34;1999.90;;;999.90;;
52620;SDS011;38515;53.160;6.990;2022-10-13T12:17:15;1999.90;;;999.90;;
52620;SDS011;38515;53.160;6.990;2022-10-13T12:19:44;1999.90;;;999.90;;
52620;SDS011;38515;53.160;6.990;2022-10-13T12:22:10;1999.90;;;999.90;;
52620;SDS011;38515;53.160;6.990;2022-10-13T12:24:37;190.93;;;174.15;;
52620;SDS011;38515;53.160;6.990;2022-10-13T12:27:09;186.55;;;173.00;;
52620;SDS011;38515;53.160;6.990;2022-10-13T12:29:45;187.82;;;176.00;;
52620;SDS011;38515;53.160;6.990;2022-10-13T12:32:18;183.25;;;171.23;;
52620;SDS011;38515;53.160;6.990;2022-10-13T12:34:45;198.13;;;183.90;;
52620;SDS011;38515;53.160;6.990;2022-10-13T12:37:14;194.07;;;180.95;;
52620;SDS011;38515;53.160;6.990;2022-10-13T12:39:55;204.57;;;189.70;;
52620;SDS011;38515;53.160;6.990;2022-10-13T12:42:25;228.65;;;205.57;;
52620;SDS011;38515;53.160;6.990;2022-10-13T12:44:54;197.07;;;183.90;;
52620;SDS011;38515;53.160;6.990;2022-10-13T12:47:51;197.52;;;185.07;;
52620;SDS011;38515;53.160;6.990;2022-10-13T12:50:21;192.02;;;179.10;;
52620;SDS011;38515;53.160;6.990;2022-10-13T12:52:49;199.40;;;186.07;;
52620;SDS011;38515;53.160;6.990;2022-10-13T12:55:19;211.05;;;195.00;;
52620;SDS011;38515;53.160;6.990;2022-10-13T12:57:46;214.60;;;195.13;;
52620;SDS011;38515;53.160;6.990;2022-10-13T13:02:55;200.65;;;186.32;;
52620;SDS011;38515;53.160;6.990;2022-10-13T13:07:56;195.52;;;182.48;;
52620;SDS011;38515;53.160;6.990;2022-10-13T13:10:22;216.43;;;197.70;;
52620;SDS011;38515;53.160;6.990;2022-10-13T13:12:49;273.10;;;219.82;;
52620;SDS011;38515;53.160;6.990;2022-10-13T13:15:18;204.88;;;191.85;;
52620;SDS011;38515;53.160;6.990;2022-10-13T13:17:44;218.05;;;199.85;;
52620;SDS011;38515;53.160;6.990;2022-10-13T13:20:18;233.45;;;206.27;;
52620;SDS011;38515;53.160;6.990;2022-10-13T13:22:51;193.90;;;180.25;;
52620;SDS011;38515;53.160;6.990;2022-10-13T13:25:18;188.38;;;176.25;;
52620;SDS011;38515;53.160;6.990;2022-10-13T13:27:44;207.90;;;188.45;;
52620;SDS011;38515;53.160;6.990;2022-10-13T13:30:11;195.43;;;178.70;;
52620;SDS011;38515;53.160;6.990;2022-10-13T13:32:39;196.20;;;183.73;;
52620;SDS011;38515;53.160;6.990;2022-10-13T13:35:05;192.90;;;178.68;;
52620;SDS011;38515;53.160;6.990;2022-10-13T13:37:33;195.23;;;179.60;;
52620;SDS011;38515;53.160;6.990;2022-10-13T13:40:03;183.25;;;172.02;;
52620;SDS011;38515;53.160;6.990;2022-10-13T13:42:30;188.88;;;175.43;;
52620;SDS011;38515;53.160;6.990;2022-10-13T13:44:56;188.80;;;176.40;;
52620;SDS011;38515;53.160;6.990;2022-10-13T13:47:23;198.48;;;182.48;;
52620;SDS011;38515;53.160;6.990;2022-10-13T13:49:51;281.25;;;214.30;;
52620;SDS011;38515;53.160;6.990;2022-10-13T13:52:18;229.05;;;205.43;;
52620;SDS011;38515;53.160;6.990;2022-10-13T13:54:46;197.00;;;183.38;;
52620;SDS011;38515;53.160;6.990;2022-10-13T13:57:13;263.48;;;209.60;;
52620;SDS011;38515;53.160;6.990;2022-10-13T13:59:40;198.40;;;182.70;;
52620;SDS011;38515;53.160;6.990;2022-10-13T14:02:06;223.90;;;202.40;;
52620;SDS011;38515;53.160;6.990;2022-10-13T14:04:38;237.18;;;197.25;;
52620;SDS011;38515;53.160;6.990;2022-10-13T14:07:03;206.40;;;184.52;;
52620;SDS011;38515;53.160;6.990;2022-10-13T14:09:29;211.90;;;193.20;;
52620;SDS011;38515;53.160;6.990;2022-10-13T14:11:55;207.68;;;192.27;;
52620;SDS011;38515;53.160;6.990;2022-10-13T14:14:21;211.52;;;196.40;;
52620;SDS011;38515;53.160;6.990;2022-10-13T14:16:47;191.43;;;177.38;;
52620;SDS011;38515;53.160;6.990;2022-10-13T14:19:13;198.93;;;182.23;;
52620;SDS011;38515;53.160;6.990;2022-10-13T14:21:39;192.32;;;180.13;;
52620;SDS011;38515;53.160;6.990;2022-10-13T14:24:05;189.35;;;176.60;;
52620;SDS011;38515;53.160;6.990;2022-10-13T14:26:31;189.20;;;176.68;;
52620;SDS011;38515;53.160;6.990;2022-10-13T14:28:57;187.25;;;174.45;;
52620;SDS011;38515;53.160;6.990;2022-10-13T14:31:23;282.77;;;196.02;;
52620;SDS011;38515;53.160;6.990;2022-10-13T14:33:49;225.43;;;185.60;;
52620;SDS011;38515;53.160;6.990;2022-10-13T14:36:15;209.80;;;193.38;;
52620;SDS011;38515;53.160;6.990;2022-10-13T14:38:40;200.20;;;185.18;;
52620;SDS011;38515;53.160;6.990;2022-10-13T14:41:07;193.38;;;180.52;;
52620;SDS011;38515;53.160;6.990;2022-10-13T14:43:33;211.45;;;192.60;;
52620;SDS011;38515;53.160;6.990;2022-10-13T14:46:00;188.48;;;175.48;;
52620;SDS011;38515;53.160;6.990;2022-10-13T14:48:29;194.15;;;182.70;;
52620;SDS011;38515;53.160;6.990;2022-10-13T14:50:55;182.50;;;170.95;;
52620;SDS011;38515;53.160;6.990;2022-10-13T14:53:22;199.10;;;183.52;;
52620;SDS011;38515;53.160;6.990;2022-10-13T14:55:50;205.95;;;189.50;;
52620;SDS011;38515;53.160;6.990;2022-10-13T14:58:16;191.70;;;175.60;;
52620;SDS011;38515;53.160;6.990;2022-10-13T15:00:42;179.82;;;167.73;;